sensor_id;sensor_type;location;lat;lon;timestamp;pressure;altitude;pressure_sealevel;temperature;humidity
17505;BME280;8870;50.950;11.762;2023-03-22T00:01:21;98092.38;;;8.24;100.00
17505;BME280;8870;50.950;11.762;2023-03-22T00:06:45;98091.47;;;8.15;100.00
17505;BME280;8870;50.950;11.762;2023-03-22T00:12:16;98078.53;;;8.10;100.00
17505;BME280;8870;50.950;11.762;2023-03-22T00:17:34;98070.59;;;8.09;100.00
17505;BME280;8870;50.950;11.762;2023-03-22T00:23:10;98063.66;;;8.16;100.00
17505;BME280;8870;50.950;11.762;2023-03-22T00:28:28;98050.44;;;8.23;100.00
17505;BME280;8870;50.950;11.762;2023-03-22T00:33:52;98048.44;;;8.25;100.00
17505;BME280;8870;50.950;11.762;2023-03-22T00:39:22;98047.59;;;8.24;100.00
17505;BME280;8870;50.950;11.762;2023-03-22T00:44:40;98045.38;;;8.20;100.00
17505;BME280;8870;50.950;11.762;2023-03-22T00:50:11;98040.31;;;8.16;100.00
17505;BME280;8870;50.950;11.762;2023-03-22T00:55:32;98043.47;;;8.12;100.00
17505;BME280;8870;50.950;11.762;2023-03-22T01:01:04;98046.25;;;8.02;100.00
17505;BME280;8870;50.950;11.762;2023-03-22T01:06:37;98034.28;;;7.96;100.00
17505;BME280;8870;50.950;11.762;2023-03-22T01:11:59;98030.84;;;7.86;100.00
17505;BME280;8870;50.950;11.762;2023-03-22T01:17:32;98022.78;;;7.86;100.00
17505;BME280;8870;50.950;11.762;2023-03-22T01:22:50;98023.44;;;7.80;100.00
17505;BME280;8870;50.950;11.762;2023-03-22T01:28:24;98017.19;;;7.79;100.00
17505;BME280;8870;50.950;11.762;2023-03-22T01:33:42;98022.03;;;7.76;100.00
17505;BME280;8870;50.950;11.762;2023-03-22T01:39:13;98026.00;;;7.71;100.00
17505;BME280;8870;50.950;11.762;2023-03-22T01:50:40;98024.47;;;7.69;100.00
17505;BME280;8870;50.950;11.762;2023-03-22T01:56:30;98019.59;;;7.64;100.00
17505;BME280;8870;50.950;11.762;2023-03-22T02:01:58;98015.38;;;7.62;100.00
17505;BME280;8870;50.950;11.762;2023-03-22T02:13:23;97998.06;;;7.56;100.00
17505;BME280;8870;50.950;11.762;2023-03-22T02:25:30;97984.91;;;7.63;100.00
17505;BME280;8870;50.950;11.762;2023-03-22T02:31:32;97983.03;;;7.63;100.00
17505;BME280;8870;50.950;11.762;2023-03-22T02:43:08;97986.34;;;7.57;100.00
17505;BME280;8870;50.950;11.762;2023-03-22T02:48:36;97986.34;;;7.57;100.00
17505;BME280;8870;50.950;11.762;2023-03-22T02:54:12;97981.13;;;7.74;100.00
17505;BME280;8870;50.950;11.762;2023-03-22T02:59:39;97982.50;;;7.78;100.00
17505;BME280;8870;50.950;11.762;2023-03-22T03:05:13;97984.19;;;7.79;100.00
17505;BME280;8870;50.950;11.762;2023-03-22T03:10:33;97984.19;;;7.79;100.00
17505;BME280;8870;50.950;11.762;2023-03-22T03:16:11;97977.84;;;7.80;100.00
17505;BME280;8870;50.950;11.762;2023-03-22T03:21:37;97983.91;;;7.82;100.00
17505;BME280;8870;50.950;11.762;2023-03-22T03:27:15;97988.56;;;7.80;100.00
17505;BME280;8870;50.950;11.762;2023-03-22T03:32:41;97988.22;;;7.83;100.00
17505;BME280;8870;50.950;11.762;2023-03-22T03:38:19;97992.59;;;7.84;100.00
17505;BME280;8870;50.950;11.762;2023-03-22T03:43:53;97985.25;;;7.86;100.00
17505;BME280;8870;50.950;11.762;2023-03-22T03:49:15;97963.78;;;7.86;100.00
17505;BME280;8870;50.950;11.762;2023-03-22T03:54:48;97976.50;;;7.84;100.00
17505;BME280;8870;50.950;11.762;2023-03-22T04:00:09;97991.25;;;7.80;100.00
17505;BME280;8870;50.950;11.762;2023-03-22T04:06:01;97991.03;;;7.73;100.00
17505;BME280;8870;50.950;11.762;2023-03-22T04:11:26;97981.28;;;7.72;100.00
17505;BME280;8870;50.950;11.762;2023-03-22T04:16:57;97974.53;;;7.68;100.00
17505;BME280;8870;50.950;11.762;2023-03-22T04:22:18;97969.34;;;7.66;100.00
17505;BME280;8870;50.950;11.762;2023-03-22T04:27:49;97978.06;;;7.68;100.00
17505;BME280;8870;50.950;11.762;2023-03-22T04:33:10;97964.81;;;7.67;100.00
17505;BME280;8870;50.950;11.762;2023-03-22T04:39:03;97953.56;;;7.63;100.00
17505;BME280;8870;50.950;11.762;2023-03-22T04:44:44;97948.50;;;7.60;100.00
17505;BME280;8870;50.950;11.762;2023-03-22T04:50:03;97950.50;;;7.58;100.00
17505;BME280;8870;50.950;11.762;2023-03-22T04:55:41;97948.03;;;7.47;100.00
17505;BME280;8870;50.950;11.762;2023-03-22T05:01:01;97956.00;;;7.38;100.00
17505;BME280;8870;50.950;11.762;2023-03-22T05:06:42;97972.84;;;7.31;100.00
17505;BME280;8870;50.950;11.762;2023-03-22T05:12:16;97960.59;;;7.28;100.00
17505;BME280;8870;50.950;11.762;2023-03-22T05:17:58;97953.94;;;7.32;100.00
17505;BME280;8870;50.950;11.762;2023-03-22T05:23:23;97950.94;;;7.35;100.00
17505;BME280;8870;50.950;11.762;2023-03-22T05:28:57;97948.41;;;7.34;100.00
17505;BME280;8870;50.950;11.762;2023-03-22T05:34:36;97947.25;;;7.36;100.00
17505;BME280;8870;50.950;11.762;2023-03-22T05:40:14;97937.09;;;7.40;100.00
17505;BME280;8870;50.950;11.762;2023-03-22T05:45:48;97937.00;;;7.50;100.00
17505;BME280;8870;50.950;11.762;2023-03-22T05:51:45;97948.66;;;7.59;100.00
17505;BME280;8870;50.950;11.762;2023-03-22T05:57:45;97946.19;;;7.65;100.00
17505;BME280;8870;50.950;11.762;2023-03-22T06:03:13;97932.50;;;7.68;100.00
17505;BME280;8870;50.950;11.762;2023-03-22T06:08:52;97943.28;;;7.77;100.00
17505;BME280;8870;50.950;11.762;2023-03-22T06:14:27;97944.03;;;7.87;100.00
17505;BME280;8870;50.950;11.762;2023-03-22T06:20:14;97935.72;;;7.98;100.00
17505;BME280;8870;50.950;11.762;2023-03-22T06:25:37;97924.69;;;8.01;100.00
17505;BME280;8870;50.950;11.762;2023-03-22T06:31:09;97940.47;;;8.05;100.00
17505;BME280;8870;50.950;11.762;2023-03-22T06:36:34;97948.25;;;8.16;100.00
17505;BME280;8870;50.950;11.762;2023-03-22T06:42:15;97950.69;;;8.27;100.00
17505;BME280;8870;50.950;11.762;2023-03-22T06:47:40;97944.34;;;8.37;100.00
17505;BME280;8870;50.950;11.762;2023-03-22T06:53:25;97932.84;;;8.44;100.00
17505;BME280;8870;50.950;11.762;2023-03-22T06:58:44;97943.25;;;8.47;100.00
17505;BME280;8870;50.950;11.762;2023-03-22T07:04:18;97948.50;;;8.49;100.00
17505;BME280;8870;50.950;11.762;2023-03-22T07:09:40;97949.69;;;8.55;100.00
17505;BME280;8870;50.950;11.762;2023-03-22T07:15:12;97951.09;;;8.67;100.00
17505;BME280;8870;50.950;11.762;2023-03-22T07:20:37;97960.19;;;8.83;100.00
17505;BME280;8870;50.950;11.762;2023-03-22T07:26:11;97962.09;;;8.90;100.00
17505;BME280;8870;50.950;11.762;2023-03-22T07:31:31;97963.47;;;9.03;100.00
17505;BME280;8870;50.950;11.762;2023-03-22T07:37:11;97962.69;;;9.19;100.00
17505;BME280;8870;50.950;11.762;2023-03-22T07:42:49;97946.78;;;9.34;100.00
17505;BME280;8870;50.950;11.762;2023-03-22T07:48:15;97949.84;;;9.55;100.00
17505;BME280;8870;50.950;11.762;2023-03-22T07:54:16;97942.13;;;9.69;100.00
17505;BME280;8870;50.950;11.762;2023-03-22T07:59:45;97932.00;;;9.87;100.00
17505;BME280;8870;50.950;11.762;2023-03-22T08:05:26;97931.66;;;9.99;100.00
17505;BME280;8870;50.950;11.762;2023-03-22T08:10:48;97924.94;;;10.11;100.00
17505;BME280;8870;50.950;11.762;2023-03-22T08:16:22;97926.28;;;10.15;100.00
17505;BME280;8870;50.950;11.762;2023-03-22T08:21:40;97924.38;;;10.32;100.00
17505;BME280;8870;50.950;11.762;2023-03-22T08:27:34;97921.66;;;10.49;100.00
17505;BME280;8870;50.950;11.762;2023-03-22T08:32:55;97920.81;;;10.57;100.00
17505;BME280;8870;50.950;11.762;2023-03-22T08:38:27;97908.63;;;10.69;100.00
17505;BME280;8870;50.950;11.762;2023-03-22T08:44:05;97902.31;;;10.93;100.00
17505;BME280;8870;50.950;11.762;2023-03-22T08:49:26;97905.78;;;11.02;100.00
17505;BME280;8870;50.950;11.762;2023-03-22T08:55:06;97893.28;;;11.33;100.00
17505;BME280;8870;50.950;11.762;2023-03-22T09:00:43;97882.28;;;11.43;100.00
17505;BME280;8870;50.950;11.762;2023-03-22T09:06:24;97887.16;;;11.62;100.00
17505;BME280;8870;50.950;11.762;2023-03-22T09:11:44;97887.41;;;11.76;100.00
17505;BME280;8870;50.950;11.762;2023-03-22T09:17:16;97862.91;;;12.00;100.00
17505;BME280;8870;50.950;11.762;2023-03-22T09:22:39;97862.66;;;12.25;100.00
17505;BME280;8870;50.950;11.762;2023-03-22T09:28:12;97847.81;;;12.36;100.00
17505;BME280;8870;50.950;11.762;2023-03-22T09:33:46;97824.56;;;12.50;100.00
17505;BME280;8870;50.950;11.762;2023-03-22T09:39:16;97839.78;;;12.73;100.00
17505;BME280;8870;50.950;11.762;2023-03-22T09:44:51;97821.03;;;12.86;100.00
17505;BME280;8870;50.950;11.762;2023-03-22T09:50:13;97812.06;;;13.07;100.00
17505;BME280;8870;50.950;11.762;2023-03-22T09:55:52;97810.28;;;13.36;100.00
17505;BME280;8870;50.950;11.762;2023-03-22T10:01:20;97798.22;;;13.61;100.00
17505;BME280;8870;50.950;11.762;2023-03-22T10:07:04;97778.91;;;13.99;100.00
17505;BME280;8870;50.950;11.762;2023-03-22T10:12:28;97770.66;;;14.14;100.00
17505;BME280;8870;50.950;11.762;2023-03-22T10:18:05;97773.66;;;14.26;100.00
17505;BME280;8870;50.950;11.762;2023-03-22T10:23:28;97772.88;;;14.39;100.00
17505;BME280;8870;50.950;11.762;2023-03-22T10:29:11;97764.38;;;14.48;100.00
17505;BME280;8870;50.950;11.762;2023-03-22T10:34:29;97772.84;;;14.32;100.00
17505;BME280;8870;50.950;11.762;2023-03-22T10:40:03;97746.59;;;14.32;100.00
17505;BME280;8870;50.950;11.762;2023-03-22T10:45:31;97744.31;;;14.36;100.00
17505;BME280;8870;50.950;11.762;2023-03-22T10:51:04;97743.97;;;14.04;100.00
17505;BME280;8870;50.950;11.762;2023-03-22T10:56:24;97739.94;;;14.35;100.00
17505;BME280;8870;50.950;11.762;2023-03-22T11:02:03;97750.72;;;14.28;100.00
17505;BME280;8870;50.950;11.762;2023-03-22T11:07:37;97744.97;;;14.45;100.00
17505;BME280;8870;50.950;11.762;2023-03-22T11:13:18;97731.63;;;14.50;100.00
17505;BME280;8870;50.950;11.762;2023-03-22T11:18:41;97714.22;;;14.73;100.00
17505;BME280;8870;50.950;11.762;2023-03-22T11:24:16;97715.00;;;14.67;100.00
17505;BME280;8870;50.950;11.762;2023-03-22T11:29:42;97718.97;;;14.64;100.00
17505;BME280;8870;50.950;11.762;2023-03-22T11:35:21;97719.66;;;14.79;100.00
17505;BME280;8870;50.950;11.762;2023-03-22T11:40:55;97718.41;;;14.89;100.00
17505;BME280;8870;50.950;11.762;2023-03-22T11:46:15;97711.13;;;14.96;100.00
17505;BME280;8870;50.950;11.762;2023-03-22T11:51:52;97711.53;;;15.06;100.00
17505;BME280;8870;50.950;11.762;2023-03-22T11:57:15;97687.78;;;15.22;100.00
17505;BME280;8870;50.950;11.762;2023-03-22T12:02:50;97679.81;;;15.40;99.43
17505;BME280;8870;50.950;11.762;2023-03-22T12:08:17;97676.28;;;15.40;100.00
17505;BME280;8870;50.950;11.762;2023-03-22T12:13:56;97666.66;;;15.24;98.59
17505;BME280;8870;50.950;11.762;2023-03-22T12:25:16;97647.84;;;15.56;97.66
17505;BME280;8870;50.950;11.762;2023-03-22T12:30:40;97654.75;;;15.38;91.47
17505;BME280;8870;50.950;11.762;2023-03-22T12:36:16;97645.53;;;15.53;97.16
17505;BME280;8870;50.950;11.762;2023-03-22T12:41:55;97647.88;;;15.43;91.47
17505;BME280;8870;50.950;11.762;2023-03-22T12:47:20;97636.97;;;15.56;97.87
17505;BME280;8870;50.950;11.762;2023-03-22T12:52:54;97632.97;;;15.65;95.24
17505;BME280;8870;50.950;11.762;2023-03-22T12:58:19;97629.03;;;15.61;95.09
17505;BME280;8870;50.950;11.762;2023-03-22T13:03:53;97630.69;;;15.62;97.99
17505;BME280;8870;50.950;11.762;2023-03-22T13:09:15;97628.34;;;15.86;96.99
17505;BME280;8870;50.950;11.762;2023-03-22T13:15:03;97614.19;;;16.23;96.67
17505;BME280;8870;50.950;11.762;2023-03-22T13:21:08;97624.69;;;16.51;86.00
17505;BME280;8870;50.950;11.762;2023-03-22T13:26:45;97625.41;;;16.65;84.85
17505;BME280;8870;50.950;11.762;2023-03-22T13:32:27;97609.03;;;16.72;83.51
17505;BME280;8870;50.950;11.762;2023-03-22T13:38:07;97619.47;;;17.07;85.45
17505;BME280;8870;50.950;11.762;2023-03-22T13:43:30;97619.31;;;16.70;85.24
17505;BME280;8870;50.950;11.762;2023-03-22T13:54:56;97621.44;;;16.61;76.91
17505;BME280;8870;50.950;11.762;2023-03-22T14:00:39;97612.75;;;16.77;70.59
17505;BME280;8870;50.950;11.762;2023-03-22T14:06:13;97585.66;;;16.89;70.98
17505;BME280;8870;50.950;11.762;2023-03-22T14:11:51;97620.34;;;17.01;68.55
17505;BME280;8870;50.950;11.762;2023-03-22T14:17:25;97606.97;;;16.92;67.90
17505;BME280;8870;50.950;11.762;2023-03-22T14:23:06;97603.13;;;17.07;66.55
17505;BME280;8870;50.950;11.762;2023-03-22T14:28:32;97602.84;;;17.15;67.36
17505;BME280;8870;50.950;11.762;2023-03-22T14:34:06;97594.13;;;17.06;69.09
17505;BME280;8870;50.950;11.762;2023-03-22T14:39:31;97583.22;;;17.06;75.24
17505;BME280;8870;50.950;11.762;2023-03-22T14:45:18;97584.56;;;17.41;71.93
17505;BME280;8870;50.950;11.762;2023-03-22T14:50:43;97595.25;;;16.99;71.36
17505;BME280;8870;50.950;11.762;2023-03-22T14:56:20;97589.22;;;17.15;72.76
17505;BME280;8870;50.950;11.762;2023-03-22T15:01:41;97579.03;;;16.85;76.76
17505;BME280;8870;50.950;11.762;2023-03-22T15:07:17;97594.16;;;16.49;69.64
17505;BME280;8870;50.950;11.762;2023-03-22T15:12:38;97583.25;;;16.17;75.08
17505;BME280;8870;50.950;11.762;2023-03-22T15:18:12;97583.38;;;15.97;77.16
17505;BME280;8870;50.950;11.762;2023-03-22T15:23:33;97580.09;;;15.75;83.83
17505;BME280;8870;50.950;11.762;2023-03-22T15:29:07;97597.28;;;15.68;83.02
17505;BME280;8870;50.950;11.762;2023-03-22T15:34:28;97600.03;;;15.55;95.68
17505;BME280;8870;50.950;11.762;2023-03-22T15:40:01;97604.81;;;15.53;92.05
17505;BME280;8870;50.950;11.762;2023-03-22T15:45:21;97600.69;;;15.44;98.28
17505;BME280;8870;50.950;11.762;2023-03-22T15:50:53;97593.38;;;15.37;95.96
17505;BME280;8870;50.950;11.762;2023-03-22T15:56:23;97610.13;;;15.14;90.98
17505;BME280;8870;50.950;11.762;2023-03-22T16:01:59;97589.47;;;15.06;93.96
17505;BME280;8870;50.950;11.762;2023-03-22T16:07:18;97600.13;;;14.94;100.00
17505;BME280;8870;50.950;11.762;2023-03-22T16:12:49;97608.28;;;14.81;100.00
17505;BME280;8870;50.950;11.762;2023-03-22T16:18:17;97609.09;;;14.82;100.00
17505;BME280;8870;50.950;11.762;2023-03-22T16:23:51;97620.59;;;14.84;100.00
17505;BME280;8870;50.950;11.762;2023-03-22T16:29:09;97619.94;;;14.75;100.00
17505;BME280;8870;50.950;11.762;2023-03-22T16:34:42;97613.47;;;14.69;100.00
17505;BME280;8870;50.950;11.762;2023-03-22T16:40:15;97614.88;;;14.58;100.00
17505;BME280;8870;50.950;11.762;2023-03-22T16:45:34;97622.81;;;14.53;100.00
17505;BME280;8870;50.950;11.762;2023-03-22T16:51:18;97621.56;;;14.49;100.00
17505;BME280;8870;50.950;11.762;2023-03-22T16:56:37;97617.38;;;14.33;100.00
17505;BME280;8870;50.950;11.762;2023-03-22T17:02:15;97619.63;;;14.23;100.00
17505;BME280;8870;50.950;11.762;2023-03-22T17:07:37;97616.06;;;14.09;100.00
17505;BME280;8870;50.950;11.762;2023-03-22T17:13:11;97623.72;;;13.92;100.00
17505;BME280;8870;50.950;11.762;2023-03-22T17:18:30;97627.13;;;13.65;100.00
17505;BME280;8870;50.950;11.762;2023-03-22T17:24:03;97621.44;;;13.53;100.00
17505;BME280;8870;50.950;11.762;2023-03-22T17:29:22;97633.69;;;13.49;100.00
17505;BME280;8870;50.950;11.762;2023-03-22T17:34:54;97636.56;;;13.41;100.00
17505;BME280;8870;50.950;11.762;2023-03-22T17:40:15;97641.31;;;13.39;100.00
17505;BME280;8870;50.950;11.762;2023-03-22T17:46:04;97640.03;;;13.35;100.00
17505;BME280;8870;50.950;11.762;2023-03-22T17:51:43;97657.72;;;13.31;100.00
17505;BME280;8870;50.950;11.762;2023-03-22T17:57:16;97655.72;;;13.18;100.00
17505;BME280;8870;50.950;11.762;2023-03-22T18:02:55;97651.13;;;13.12;100.00
17505;BME280;8870;50.950;11.762;2023-03-22T18:08:26;97650.19;;;12.98;100.00
17505;BME280;8870;50.950;11.762;2023-03-22T18:13:48;97650.81;;;13.00;100.00
17505;BME280;8870;50.950;11.762;2023-03-22T18:19:37;97644.56;;;12.99;100.00
17505;BME280;8870;50.950;11.762;2023-03-22T18:25:15;97650.69;;;13.08;100.00
17505;BME280;8870;50.950;11.762;2023-03-22T18:30:58;97639.66;;;13.09;100.00
17505;BME280;8870;50.950;11.762;2023-03-22T18:36:24;97641.13;;;13.12;100.00
17505;BME280;8870;50.950;11.762;2023-03-22T18:41:56;97647.19;;;13.14;100.00
17505;BME280;8870;50.950;11.762;2023-03-22T18:47:30;97648.69;;;13.17;100.00
17505;BME280;8870;50.950;11.762;2023-03-22T18:53:07;97638.69;;;13.17;100.00
17505;BME280;8870;50.950;11.762;2023-03-22T18:58:26;97631.84;;;13.21;100.00
17505;BME280;8870;50.950;11.762;2023-03-22T19:03:53;97620.81;;;13.23;100.00
17505;BME280;8870;50.950;11.762;2023-03-22T19:09:19;97619.59;;;13.25;100.00
17505;BME280;8870;50.950;11.762;2023-03-22T19:14:37;97620.22;;;13.28;100.00
17505;BME280;8870;50.950;11.762;2023-03-22T19:20:21;97621.91;;;13.29;100.00
17505;BME280;8870;50.950;11.762;2023-03-22T19:25:47;97619.19;;;13.29;100.00
17505;BME280;8870;50.950;11.762;2023-03-22T19:31:18;97618.16;;;13.30;100.00
17505;BME280;8870;50.950;11.762;2023-03-22T19:36:45;97609.66;;;13.33;100.00
17505;BME280;8870;50.950;11.762;2023-03-22T19:42:18;97619.88;;;13.37;100.00
17505;BME280;8870;50.950;11.762;2023-03-22T19:47:51;97609.06;;;13.37;100.00
17505;BME280;8870;50.950;11.762;2023-03-22T19:53:14;97608.22;;;13.37;100.00
17505;BME280;8870;50.950;11.762;2023-03-22T19:59:07;97602.78;;;13.37;100.00
17505;BME280;8870;50.950;11.762;2023-03-22T20:04:27;97605.50;;;13.37;100.00
17505;BME280;8870;50.950;11.762;2023-03-22T20:10:04;97594.47;;;13.32;100.00
17505;BME280;8870;50.950;11.762;2023-03-22T20:15:23;97589.47;;;13.35;100.00
17505;BME280;8870;50.950;11.762;2023-03-22T20:20:54;97590.50;;;13.34;100.00
17505;BME280;8870;50.950;11.762;2023-03-22T20:26:14;97585.75;;;13.36;100.00
17505;BME280;8870;50.950;11.762;2023-03-22T20:31:47;97582.59;;;13.33;100.00
17505;BME280;8870;50.950;11.762;2023-03-22T20:37:12;97589.44;;;13.29;100.00
17505;BME280;8870;50.950;11.762;2023-03-22T20:42:46;97589.41;;;13.22;100.00
17505;BME280;8870;50.950;11.762;2023-03-22T20:48:05;97586.06;;;13.20;100.00
17505;BME280;8870;50.950;11.762;2023-03-22T20:53:37;97579.41;;;13.16;100.00
17505;BME280;8870;50.950;11.762;2023-03-22T20:58:57;97580.56;;;13.06;100.00
17505;BME280;8870;50.950;11.762;2023-03-22T21:04:29;97573.41;;;12.92;100.00
17505;BME280;8870;50.950;11.762;2023-03-22T21:09:48;97584.81;;;12.87;100.00
17505;BME280;8870;50.950;11.762;2023-03-22T21:15:22;97579.41;;;12.87;100.00
17505;BME280;8870;50.950;11.762;2023-03-22T21:20:40;97576.72;;;12.87;100.00
17505;BME280;8870;50.950;11.762;2023-03-22T21:26:11;97569.38;;;12.81;100.00
17505;BME280;8870;50.950;11.762;2023-03-22T21:31:32;97564.34;;;12.78;100.00
17505;BME280;8870;50.950;11.762;2023-03-22T21:37:03;97561.41;;;12.73;100.00
17505;BME280;8870;50.950;11.762;2023-03-22T21:42:22;97557.88;;;12.72;100.00
17505;BME280;8870;50.950;11.762;2023-03-22T21:48:02;97561.38;;;12.66;100.00
17505;BME280;8870;50.950;11.762;2023-03-22T21:53:23;97556.94;;;12.58;100.00
17505;BME280;8870;50.950;11.762;2023-03-22T21:58:55;97549.81;;;12.51;100.00
17505;BME280;8870;50.950;11.762;2023-03-22T22:04:17;97557.19;;;12.42;100.00
17505;BME280;8870;50.950;11.762;2023-03-22T22:09:54;97553.34;;;12.29;100.00
17505;BME280;8870;50.950;11.762;2023-03-22T22:15:12;97541.28;;;12.25;100.00
17505;BME280;8870;50.950;11.762;2023-03-22T22:20:46;97542.63;;;12.14;100.00
17505;BME280;8870;50.950;11.762;2023-03-22T22:26:11;97534.09;;;12.11;100.00
17505;BME280;8870;50.950;11.762;2023-03-22T22:31:43;97529.84;;;12.01;100.00
17505;BME280;8870;50.950;11.762;2023-03-22T22:37:10;97520.28;;;11.99;100.00
17505;BME280;8870;50.950;11.762;2023-03-22T22:42:42;97525.00;;;11.97;100.00
17505;BME280;8870;50.950;11.762;2023-03-22T22:48:00;97527.25;;;11.93;100.00
17505;BME280;8870;50.950;11.762;2023-03-22T22:53:34;97523.50;;;11.94;100.00
17505;BME280;8870;50.950;11.762;2023-03-22T22:58:52;97520.19;;;11.92;100.00
17505;BME280;8870;50.950;11.762;2023-03-22T23:04:23;97528.72;;;11.74;100.00
17505;BME280;8870;50.950;11.762;2023-03-22T23:09:45;97524.59;;;11.78;100.00
17505;BME280;8870;50.950;11.762;2023-03-22T23:15:17;97520.03;;;11.79;100.00
17505;BME280;8870;50.950;11.762;2023-03-22T23:20:36;97516.03;;;11.75;100.00
17505;BME280;8870;50.950;11.762;2023-03-22T23:26:14;97509.75;;;11.67;100.00
17505;BME280;8870;50.950;11.762;2023-03-22T23:31:36;97511.78;;;11.65;100.00
17505;BME280;8870;50.950;11.762;2023-03-22T23:37:09;97500.81;;;11.67;100.00
17505;BME280;8870;50.950;11.762;2023-03-22T23:42:30;97491.38;;;11.78;100.00
17505;BME280;8870;50.950;11.762;2023-03-22T23:48:07;97495.81;;;11.85;100.00
17505;BME280;8870;50.950;11.762;2023-03-22T23:53:25;97492.34;;;11.92;100.00
17505;BME280;8870;50.950;11.762;2023-03-22T23:59:01;97488.63;;;11.93;100.00
